createdAt,value
2019-03-22T00:02:01.916Z,4.40
2019-03-22T00:04:30.670Z,4.37
2019-03-22T00:06:59.073Z,3.90
2019-03-22T00:09:27.487Z,4.43
2019-03-22T00:11:55.869Z,3.83
2019-03-22T00:14:24.287Z,4.20
2019-03-22T00:16:52.684Z,3.60
2019-03-22T00:19:21.062Z,3.93
2019-03-22T00:21:49.472Z,4.40
2019-03-22T00:24:17.856Z,4.63
2019-03-22T00:26:46.413Z,5.40
2019-03-22T00:29:15.158Z,4.63
2019-03-22T00:31:43.554Z,4.40
2019-03-22T00:34:11.964Z,4.80
2019-03-22T00:36:40.361Z,5.43
2019-03-22T00:39:08.815Z,4.53
2019-03-22T00:41:37.205Z,5.17
2019-03-22T00:44:05.604Z,4.27
2019-03-22T00:46:34.017Z,4.20
2019-03-22T00:49:02.405Z,4.70
2019-03-22T00:51:30.798Z,4.30
2019-03-22T00:53:59.289Z,4.37
2019-03-22T00:56:27.676Z,3.60
2019-03-22T00:58:56.429Z,4.77
2019-03-22T01:01:25.104Z,4.70
2019-03-22T01:03:53.492Z,4.70
2019-03-22T01:06:21.976Z,4.10
2019-03-22T01:08:50.428Z,4.60
2019-03-22T01:11:19.386Z,4.42
2019-03-22T01:13:47.788Z,4.00
2019-03-22T01:16:16.178Z,4.63
2019-03-22T01:18:44.704Z,4.53
2019-03-22T01:21:13.091Z,4.47
2019-03-22T01:23:41.480Z,4.00
2019-03-22T01:26:09.889Z,4.30
2019-03-22T01:28:38.292Z,4.20
2019-03-22T01:31:06.801Z,4.90
2019-03-22T01:33:35.199Z,4.77
2019-03-22T01:36:03.660Z,4.63
2019-03-22T01:38:32.411Z,4.70
2019-03-22T01:41:01.091Z,5.20
2019-03-22T01:43:29.504Z,4.67
2019-03-22T01:45:57.892Z,4.23
2019-03-22T01:48:26.294Z,4.33
2019-03-22T01:50:54.714Z,4.70
2019-03-22T01:53:23.104Z,4.47
2019-03-22T01:55:51.514Z,3.70
2019-03-22T01:58:19.911Z,3.97
2019-03-22T02:00:48.340Z,4.07
2019-03-22T02:03:16.749Z,4.23
2019-03-22T02:05:45.216Z,4.60
2019-03-22T02:08:13.627Z,4.90
2019-03-22T02:10:42.007Z,4.77
2019-03-22T02:13:10.405Z,4.22
2019-03-22T02:15:38.816Z,3.93
2019-03-22T02:18:07.212Z,5.00
2019-03-22T02:20:35.594Z,4.47
2019-03-22T02:23:04.012Z,4.23
2019-03-22T02:25:32.707Z,4.50
2019-03-22T02:28:04.285Z,4.30
2019-03-22T02:30:31.255Z,4.77
2019-03-22T02:32:59.645Z,4.13
2019-03-22T02:35:29.570Z,5.00
2019-03-22T02:37:58.132Z,4.90
2019-03-22T02:40:26.872Z,4.70
2019-03-22T02:42:55.270Z,4.57
2019-03-22T02:45:23.797Z,5.20
2019-03-22T02:47:52.427Z,4.67
2019-03-22T02:50:20.856Z,4.73
2019-03-22T02:52:49.253Z,4.80
2019-03-22T02:55:17.642Z,4.67
2019-03-22T02:57:46.348Z,4.20
2019-03-22T03:00:16.400Z,4.53
2019-03-22T03:02:44.901Z,4.40
2019-03-22T03:05:14.827Z,4.10
2019-03-22T03:07:43.486Z,4.53
2019-03-22T03:10:14.687Z,4.33
2019-03-22T03:12:44.193Z,4.30
2019-03-22T03:15:14.882Z,4.47
2019-03-22T03:17:43.370Z,5.17
2019-03-22T03:20:17.101Z,4.53
2019-03-22T03:22:45.863Z,4.97
2019-03-22T03:25:15.816Z,4.73
2019-03-22T03:27:44.339Z,5.13
2019-03-22T03:30:17.925Z,5.07
2019-03-22T03:32:46.268Z,4.43
2019-03-22T03:35:15.119Z,4.50
2019-03-22T03:37:43.499Z,4.67
2019-03-22T03:40:13.198Z,5.10
2019-03-22T03:42:41.616Z,4.60
2019-03-22T03:45:31.509Z,4.50
2019-03-22T03:48:05.205Z,5.03
2019-03-22T03:50:34.025Z,4.97
2019-03-22T03:53:02.503Z,4.53
2019-03-22T03:55:30.907Z,5.47
2019-03-22T03:57:59.324Z,4.60
2019-03-22T04:00:27.879Z,4.63
2019-03-22T04:02:56.271Z,4.93
2019-03-22T04:05:24.842Z,4.73
2019-03-22T04:07:53.608Z,5.00
2019-03-22T04:10:22.034Z,5.20
2019-03-22T04:12:50.438Z,4.57
2019-03-22T04:15:18.825Z,4.80
2019-03-22T04:17:47.229Z,4.90
2019-03-22T04:20:15.617Z,5.50
2019-03-22T04:22:44.351Z,5.87
2019-03-22T04:25:12.900Z,5.47
2019-03-22T04:27:41.290Z,5.07
2019-03-22T04:30:09.841Z,5.30
2019-03-22T04:32:38.251Z,4.53
2019-03-22T04:35:07.671Z,5.20
2019-03-22T04:37:36.121Z,5.90
2019-03-22T04:40:07.819Z,5.53
2019-03-22T04:42:36.205Z,4.90
2019-03-22T04:45:06.453Z,5.00
2019-03-22T04:47:35.676Z,5.10
2019-03-22T04:50:05.421Z,5.00
2019-03-22T04:52:34.146Z,4.83
2019-03-22T04:55:03.192Z,5.87
2019-03-22T04:57:33.327Z,5.10
2019-03-22T05:00:02.456Z,5.20
2019-03-22T05:02:32.117Z,4.27
2019-03-22T05:05:00.763Z,5.23
2019-03-22T05:07:29.726Z,5.27
2019-03-22T05:09:58.848Z,5.23
2019-03-22T05:12:27.681Z,4.50
2019-03-22T05:14:58.133Z,5.73
2019-03-22T05:17:27.153Z,5.43
2019-03-22T05:19:57.993Z,5.10
2019-03-22T05:22:29.239Z,5.78
2019-03-22T05:24:59.885Z,5.47
2019-03-22T05:27:29.719Z,4.70
2019-03-22T05:29:59.750Z,5.40
2019-03-22T05:32:28.231Z,5.77
2019-03-22T05:34:56.625Z,5.57
2019-03-22T05:37:25.217Z,5.40
2019-03-22T05:39:53.605Z,4.97
2019-03-22T05:42:21.995Z,5.60
2019-03-22T05:44:50.400Z,5.33
2019-03-22T05:47:18.865Z,4.80
2019-03-22T05:49:47.283Z,18.80
2019-03-22T05:52:15.685Z,7.40
2019-03-22T05:54:44.105Z,6.43
2019-03-22T05:57:14.011Z,5.53
2019-03-22T05:59:43.793Z,5.27
2019-03-22T06:02:12.921Z,5.27
2019-03-22T06:04:42.288Z,6.03
2019-03-22T06:07:10.705Z,5.23
2019-03-22T06:09:39.092Z,5.70
2019-03-22T06:12:07.580Z,5.73
2019-03-22T06:14:36.002Z,5.17
2019-03-22T06:17:04.369Z,5.60
2019-03-22T06:19:32.777Z,5.30
2019-03-22T06:22:01.170Z,5.47
2019-03-22T06:24:29.596Z,5.53
2019-03-22T06:26:57.976Z,6.00
2019-03-22T06:29:26.369Z,6.20
2019-03-22T06:31:54.771Z,5.80
2019-03-22T06:34:23.173Z,6.90
2019-03-22T06:36:51.570Z,6.13
2019-03-22T06:39:19.994Z,5.90
2019-03-22T06:41:48.397Z,6.53
2019-03-22T06:44:17.112Z,6.03
2019-03-22T06:46:45.530Z,6.60
2019-03-22T06:49:13.929Z,5.50
2019-03-22T06:51:42.657Z,6.40
2019-03-22T06:54:11.050Z,6.17
2019-03-22T06:56:39.565Z,6.27
2019-03-22T06:59:07.956Z,7.00
2019-03-22T07:01:36.358Z,6.23
2019-03-22T07:04:05.052Z,6.50
2019-03-22T07:06:33.748Z,6.67
2019-03-22T07:09:02.147Z,6.70
2019-03-22T07:11:30.554Z,6.55
2019-03-22T07:13:59.317Z,6.50
2019-03-22T07:16:27.719Z,5.80
2019-03-22T07:18:56.139Z,5.90
2019-03-22T07:21:24.541Z,6.53
2019-03-22T07:23:53.044Z,6.17
2019-03-22T07:26:21.426Z,6.30
2019-03-22T07:28:49.817Z,5.30
2019-03-22T07:31:18.243Z,6.87
2019-03-22T07:33:46.634Z,6.50
2019-03-22T07:36:15.030Z,6.07
2019-03-22T07:38:43.453Z,5.80
2019-03-22T07:41:11.868Z,6.13
2019-03-22T07:43:40.560Z,6.50
2019-03-22T07:46:08.975Z,5.67
2019-03-22T07:48:37.392Z,6.37
2019-03-22T07:51:05.786Z,6.47
2019-03-22T07:53:34.185Z,5.63
2019-03-22T07:56:02.785Z,6.50
2019-03-22T07:58:31.181Z,6.17
2019-03-22T08:00:59.574Z,6.17
2019-03-22T08:03:28.295Z,6.63
2019-03-22T08:05:56.681Z,6.00
2019-03-22T08:08:25.105Z,6.40
2019-03-22T08:10:53.497Z,6.67
2019-03-22T08:13:21.889Z,7.10
2019-03-22T08:15:50.427Z,5.93
2019-03-22T08:18:18.835Z,6.57
2019-03-22T08:20:47.388Z,6.30
2019-03-22T08:23:20.900Z,6.80
2019-03-22T08:25:49.557Z,6.77
2019-03-22T08:28:17.951Z,5.90
2019-03-22T08:30:46.588Z,6.67
2019-03-22T08:33:14.982Z,6.43
2019-03-22T08:35:43.401Z,6.30
2019-03-22T08:38:11.897Z,6.20
2019-03-22T08:40:40.265Z,7.20
2019-03-22T08:43:08.686Z,6.80
2019-03-22T08:45:37.094Z,6.43
2019-03-22T08:48:05.477Z,5.90
2019-03-22T08:50:33.992Z,7.10
2019-03-22T08:53:02.410Z,6.53
2019-03-22T08:55:30.807Z,6.17
2019-03-22T08:57:59.201Z,6.23
2019-03-22T09:00:38.656Z,6.37
2019-03-22T09:02:57.791Z,6.17
2019-03-22T09:05:26.285Z,6.10
2019-03-22T09:07:55.285Z,7.17
2019-03-22T09:10:23.653Z,7.03
2019-03-22T09:12:52.153Z,6.30
2019-03-22T09:15:20.545Z,6.57
2019-03-22T09:17:49.006Z,6.50
2019-03-22T09:20:17.388Z,7.00
2019-03-22T09:22:46.152Z,6.90
2019-03-22T09:25:14.544Z,6.40
2019-03-22T09:27:42.959Z,7.00
2019-03-22T09:30:13.697Z,6.67
2019-03-22T09:32:42.106Z,6.70
2019-03-22T09:35:11.147Z,6.53
2019-03-22T09:37:39.531Z,6.63
2019-03-22T09:40:08.954Z,5.67
2019-03-22T09:42:37.591Z,6.40
2019-03-22T09:45:08.183Z,7.20
2019-03-22T09:47:36.616Z,6.10
2019-03-22T09:50:10.132Z,6.33
2019-03-22T09:52:38.567Z,6.73
2019-03-22T09:55:13.269Z,7.00
2019-03-22T09:57:37.549Z,7.57
2019-03-22T10:00:09.520Z,6.40
2019-03-22T10:02:37.884Z,6.28
2019-03-22T10:05:06.974Z,6.87
2019-03-22T10:07:35.388Z,7.20
2019-03-22T10:10:05.527Z,7.23
2019-03-22T10:12:34.311Z,6.77
2019-03-22T10:15:02.662Z,6.33
2019-03-22T10:17:31.142Z,6.50
2019-03-22T10:19:59.482Z,6.17
2019-03-22T10:22:28.025Z,7.07
2019-03-22T10:24:56.487Z,6.63
2019-03-22T10:27:24.869Z,7.27
2019-03-22T10:29:53.527Z,6.90
2019-03-22T10:32:23.862Z,7.07
2019-03-22T10:34:52.066Z,8.13
2019-03-22T10:37:20.482Z,6.45
2019-03-22T10:39:48.884Z,8.13
2019-03-22T10:42:17.411Z,7.13
2019-03-22T10:44:45.797Z,6.53
2019-03-22T10:47:14.188Z,7.30
2019-03-22T10:49:42.685Z,8.37
2019-03-22T10:52:11.085Z,7.83
2019-03-22T10:54:39.501Z,8.07
2019-03-22T10:57:08.081Z,7.13
2019-03-22T10:59:36.479Z,7.40
2019-03-22T11:02:07.640Z,9.13
2019-03-22T11:04:35.190Z,7.87
2019-03-22T11:07:03.856Z,8.27
2019-03-22T11:09:32.592Z,8.20
2019-03-22T11:12:11.734Z,7.80
2019-03-22T11:14:31.410Z,7.03
2019-03-22T11:16:59.833Z,8.07
2019-03-22T11:19:28.257Z,8.03
2019-03-22T11:21:56.687Z,7.93
2019-03-22T11:24:25.085Z,8.20
2019-03-22T11:26:53.490Z,8.17
2019-03-22T11:29:21.902Z,7.30
2019-03-22T11:31:50.305Z,6.67
2019-03-22T11:34:18.729Z,7.67
2019-03-22T11:36:47.136Z,7.47
2019-03-22T11:39:16.153Z,8.57
2019-03-22T11:41:44.658Z,7.77
2019-03-22T11:44:13.060Z,7.40
2019-03-22T11:46:41.792Z,8.00
2019-03-22T11:49:10.538Z,7.40
2019-03-22T11:51:40.266Z,6.70
2019-03-22T11:54:08.796Z,6.87
2019-03-22T11:56:37.510Z,7.80
2019-03-22T11:59:06.314Z,7.03
2019-03-22T12:01:34.733Z,6.10
2019-03-22T12:04:03.137Z,6.13
2019-03-22T12:06:31.558Z,6.37
2019-03-22T12:08:59.976Z,6.07
2019-03-22T12:11:28.364Z,6.23
2019-03-22T12:13:56.847Z,7.30
2019-03-22T12:16:25.249Z,7.30
2019-03-22T12:18:53.645Z,7.30
2019-03-22T12:21:22.079Z,8.03
2019-03-22T12:23:50.476Z,6.57
2019-03-22T12:26:18.883Z,6.60
2019-03-22T12:28:47.299Z,6.83
2019-03-22T12:31:15.696Z,6.90
2019-03-22T12:33:44.123Z,6.33
2019-03-22T12:36:12.529Z,7.00
2019-03-22T12:38:40.922Z,6.92
2019-03-22T12:41:09.647Z,6.73
2019-03-22T12:43:38.052Z,5.60
2019-03-22T12:46:06.544Z,6.57
2019-03-22T12:48:34.936Z,6.20
2019-03-22T12:51:03.523Z,6.57
2019-03-22T12:53:32.263Z,5.80
2019-03-22T12:56:00.663Z,6.67
2019-03-22T12:58:29.081Z,5.60
2019-03-22T13:00:57.806Z,5.50
2019-03-22T13:03:26.222Z,5.40
2019-03-22T13:05:54.617Z,6.30
2019-03-22T13:08:23.350Z,6.27
2019-03-22T13:10:51.753Z,5.70
2019-03-22T13:13:20.145Z,6.00
2019-03-22T13:15:48.559Z,6.47
2019-03-22T13:18:16.961Z,5.30
2019-03-22T13:20:45.403Z,5.70
2019-03-22T13:23:13.798Z,5.47
2019-03-22T13:25:42.194Z,5.43
2019-03-22T13:28:10.891Z,5.57
2019-03-22T13:30:39.574Z,6.33
2019-03-22T13:33:07.997Z,5.60
2019-03-22T13:35:36.479Z,5.80
2019-03-22T13:38:05.103Z,5.80
2019-03-22T13:40:33.524Z,6.30
2019-03-22T13:43:01.925Z,5.90
2019-03-22T13:45:30.345Z,5.60
2019-03-22T13:47:59.038Z,6.67
2019-03-22T13:50:27.507Z,5.83
2019-03-22T13:52:55.926Z,6.20
2019-03-22T13:55:24.333Z,6.47
2019-03-22T13:57:52.748Z,5.57
2019-03-22T14:00:21.320Z,7.27
2019-03-22T14:02:49.717Z,7.20
2019-03-22T14:05:18.260Z,7.03
2019-03-22T14:07:46.661Z,6.60
2019-03-22T14:10:33.220Z,6.53
2019-03-22T14:13:03.357Z,5.37
2019-03-22T14:15:32.108Z,5.93
2019-03-22T14:18:01.017Z,6.00
2019-03-22T14:20:29.952Z,6.00
2019-03-22T14:22:58.516Z,4.63
2019-03-22T14:25:26.934Z,5.80
2019-03-22T14:27:55.342Z,5.30
2019-03-22T14:30:23.736Z,5.83
2019-03-22T14:32:52.468Z,5.90
2019-03-22T14:35:20.936Z,4.80
2019-03-22T14:37:49.343Z,5.37
2019-03-22T14:40:17.754Z,5.03
2019-03-22T14:42:46.190Z,5.83
2019-03-22T14:45:14.729Z,5.30
2019-03-22T14:47:43.140Z,5.63
2019-03-22T14:50:12.171Z,4.90
2019-03-22T14:52:40.561Z,5.23
2019-03-22T14:55:09.217Z,5.23
2019-03-22T14:57:47.772Z,6.10
2019-03-22T15:00:10.381Z,6.17
2019-03-22T15:02:38.803Z,6.33
2019-03-22T15:05:07.538Z,6.30
2019-03-22T15:07:35.966Z,6.58
2019-03-22T15:10:06.300Z,5.87
2019-03-22T15:12:34.712Z,5.47
2019-03-22T15:15:08.329Z,6.50
2019-03-22T15:17:54.757Z,6.07
2019-03-22T15:20:25.136Z,5.60
2019-03-22T15:22:57.913Z,5.90
2019-03-22T15:25:37.070Z,7.50
2019-03-22T15:28:24.969Z,6.60
2019-03-22T15:31:11.263Z,6.57
2019-03-22T15:33:50.132Z,6.30
2019-03-22T15:36:22.837Z,6.00
2019-03-22T15:39:08.281Z,6.67
2019-03-22T15:41:36.833Z,6.80
2019-03-22T15:44:05.392Z,6.63
2019-03-22T15:46:34.060Z,6.47
2019-03-22T15:49:02.461Z,6.80
2019-03-22T15:51:30.848Z,6.17
2019-03-22T15:53:59.565Z,6.67
2019-03-22T15:56:27.959Z,7.30
2019-03-22T15:58:56.728Z,6.40
2019-03-22T16:01:25.125Z,5.37
2019-03-22T16:03:53.681Z,6.53
2019-03-22T16:06:22.084Z,7.10
2019-03-22T16:08:50.481Z,7.07
2019-03-22T16:11:18.901Z,8.20
2019-03-22T16:13:47.300Z,8.67
2019-03-22T16:16:15.731Z,8.43
2019-03-22T16:18:44.133Z,7.83
2019-03-22T16:21:12.531Z,8.40
2019-03-22T16:23:41.121Z,7.87
2019-03-22T16:26:09.523Z,8.83
2019-03-22T16:28:37.941Z,9.00
2019-03-22T16:31:06.336Z,8.40
2019-03-22T16:33:34.768Z,7.23
2019-03-22T16:36:03.197Z,7.63
2019-03-22T16:38:31.604Z,8.10
2019-03-22T16:41:00.029Z,7.73
2019-03-22T16:43:28.434Z,8.47
2019-03-22T16:45:56.856Z,7.87
2019-03-22T16:48:25.258Z,6.73
2019-03-22T16:50:53.683Z,7.90
2019-03-22T16:53:22.102Z,8.53
2019-03-22T16:55:50.508Z,8.20
2019-03-22T16:58:18.926Z,7.50
2019-03-22T17:00:49.802Z,7.63
2019-03-22T17:03:17.864Z,9.17
2019-03-22T17:05:46.283Z,9.73
2019-03-22T17:08:15.003Z,10.70
2019-03-22T17:10:43.421Z,9.00
2019-03-22T17:13:11.829Z,10.00
2019-03-22T17:15:40.222Z,9.07
2019-03-22T17:18:08.685Z,8.50
2019-03-22T17:20:37.085Z,8.30
2019-03-22T17:23:05.519Z,8.63
2019-03-22T17:25:33.910Z,8.87
2019-03-22T17:28:02.320Z,9.93
2019-03-22T17:30:30.741Z,9.37
2019-03-22T17:32:59.145Z,8.93
2019-03-22T17:35:27.540Z,8.13
2019-03-22T17:37:55.975Z,8.57
2019-03-22T17:40:24.438Z,8.60
2019-03-22T17:42:52.832Z,9.27
2019-03-22T17:45:21.439Z,8.47
2019-03-22T17:47:49.879Z,7.60
2019-03-22T17:50:18.519Z,7.90
2019-03-22T17:52:46.947Z,7.13
2019-03-22T17:55:15.577Z,7.73
2019-03-22T17:57:43.981Z,9.70
2019-03-22T18:00:18.829Z,7.83
2019-03-22T18:02:47.228Z,7.03
2019-03-22T18:05:15.704Z,7.10
2019-03-22T18:07:44.114Z,6.70
2019-03-22T18:10:12.861Z,8.03
2019-03-22T18:12:41.266Z,11.60
2019-03-22T18:15:12.111Z,11.70
2019-03-22T18:17:40.506Z,9.10
2019-03-22T18:20:13.953Z,8.77
2019-03-22T18:22:42.389Z,7.40
2019-03-22T18:25:15.699Z,9.33
2019-03-22T18:27:44.043Z,7.13
2019-03-22T18:30:14.569Z,6.50
2019-03-22T18:32:43.313Z,6.20
2019-03-22T18:35:12.151Z,7.13
2019-03-22T18:37:40.584Z,7.70
2019-03-22T18:40:15.340Z,7.53
2019-03-22T18:42:43.794Z,7.53
2019-03-22T18:45:15.321Z,6.97
2019-03-22T18:47:43.715Z,6.23
2019-03-22T18:50:13.651Z,5.97
2019-03-22T18:52:42.087Z,7.50
2019-03-22T18:55:11.023Z,7.37
2019-03-22T18:57:39.411Z,6.67
2019-03-22T19:00:11.479Z,6.40
2019-03-22T19:02:39.877Z,8.87
2019-03-22T19:05:08.917Z,11.18
2019-03-22T19:07:37.331Z,8.10
2019-03-22T19:10:09.042Z,8.67
2019-03-22T19:12:37.464Z,8.13
2019-03-22T19:15:08.902Z,8.30
2019-03-22T19:17:37.334Z,7.00
2019-03-22T19:20:08.173Z,7.07
2019-03-22T19:22:36.573Z,6.87
2019-03-22T19:25:07.023Z,7.10
2019-03-22T19:27:35.423Z,7.43
2019-03-22T19:30:09.816Z,7.90
2019-03-22T19:32:38.216Z,7.13
2019-03-22T19:35:08.257Z,7.43
2019-03-22T19:37:36.930Z,8.00
2019-03-22T19:40:10.246Z,8.00
2019-03-22T19:42:38.645Z,10.33
2019-03-22T19:45:09.399Z,9.03
2019-03-22T19:47:37.856Z,8.73
2019-03-22T19:50:07.783Z,8.37
2019-03-22T19:52:36.278Z,8.13
2019-03-22T19:55:10.382Z,9.83
2019-03-22T19:57:39.049Z,9.03
2019-03-22T20:00:13.482Z,9.23
2019-03-22T20:02:41.956Z,10.70
2019-03-22T20:05:10.363Z,13.20
2019-03-22T20:07:38.767Z,10.33
2019-03-22T20:10:12.904Z,9.88
2019-03-22T20:12:41.327Z,10.60
2019-03-22T20:15:11.266Z,12.67
2019-03-22T20:17:39.760Z,10.17
2019-03-22T20:20:09.292Z,9.07
2019-03-22T20:22:37.998Z,8.73
2019-03-22T20:25:08.354Z,8.60
2019-03-22T20:27:36.751Z,9.20
2019-03-22T20:30:14.037Z,8.73
2019-03-22T20:32:42.437Z,9.33
2019-03-22T20:35:16.224Z,8.70
2019-03-22T20:37:41.239Z,8.17
2019-03-22T20:40:12.216Z,8.50
2019-03-22T20:42:40.634Z,8.67
2019-03-22T20:45:09.770Z,7.70
2019-03-22T20:47:38.196Z,8.83
2019-03-22T20:50:08.232Z,8.57
2019-03-22T20:52:36.821Z,9.10
2019-03-22T20:55:08.015Z,8.97
2019-03-22T20:57:36.418Z,8.30
2019-03-22T21:00:12.669Z,8.90
2019-03-22T21:02:41.057Z,8.77
2019-03-22T21:05:10.113Z,7.97
2019-03-22T21:07:38.633Z,8.27
2019-03-22T21:10:08.656Z,7.77
2019-03-22T21:12:37.045Z,7.20
2019-03-22T21:15:07.027Z,8.30
2019-03-22T21:17:35.427Z,9.10
2019-03-22T21:20:06.569Z,8.30
2019-03-22T21:22:35.004Z,8.70
2019-03-22T21:25:04.939Z,8.87
2019-03-22T21:27:33.364Z,7.73
2019-03-22T21:30:01.767Z,8.37
2019-03-22T21:32:30.155Z,7.90
2019-03-22T21:34:58.568Z,8.17
2019-03-22T21:37:26.983Z,8.43
2019-03-22T21:39:55.376Z,8.83
2019-03-22T21:42:23.802Z,8.27
2019-03-22T21:44:52.199Z,7.43
2019-03-22T21:47:20.617Z,7.80
2019-03-22T21:49:49.014Z,8.53
2019-03-22T21:52:17.407Z,8.53
2019-03-22T21:54:45.844Z,8.47
2019-03-22T21:57:17.897Z,8.90
2019-03-22T21:59:49.041Z,8.30
2019-03-22T22:02:17.499Z,8.00
2019-03-22T22:04:45.893Z,7.93
2019-03-22T22:07:14.286Z,7.73
2019-03-22T22:09:42.697Z,7.77
2019-03-22T22:12:11.091Z,7.97
2019-03-22T22:14:41.100Z,7.23
2019-03-22T22:17:09.724Z,7.03
2019-03-22T22:19:38.079Z,6.50
2019-03-22T22:22:06.501Z,7.00
2019-03-22T22:24:34.902Z,6.77
2019-03-22T22:27:13.511Z,7.50
2019-03-22T22:29:33.432Z,7.70
2019-03-22T22:32:01.827Z,7.47
2019-03-22T22:34:30.248Z,8.03
2019-03-22T22:36:58.641Z,8.83
2019-03-22T22:39:27.057Z,7.93
2019-03-22T22:41:55.458Z,8.10
2019-03-22T22:44:23.849Z,8.80
2019-03-22T22:46:52.266Z,7.47
2019-03-22T22:49:20.656Z,8.03
2019-03-22T22:51:49.069Z,8.00
2019-03-22T22:54:17.466Z,8.30
2019-03-22T22:56:45.863Z,9.07
2019-03-22T22:59:14.275Z,8.00
2019-03-22T23:01:42.668Z,8.00
2019-03-22T23:04:11.065Z,8.37
2019-03-22T23:06:39.471Z,7.83
2019-03-22T23:09:07.876Z,7.80
2019-03-22T23:11:36.269Z,7.33
2019-03-22T23:14:04.678Z,6.77
2019-03-22T23:16:33.090Z,7.90
2019-03-22T23:19:01.502Z,8.17
2019-03-22T23:21:29.986Z,8.57
2019-03-22T23:23:58.659Z,7.77
2019-03-22T23:26:27.339Z,8.13
2019-03-22T23:28:56.417Z,7.80
2019-03-22T23:31:24.816Z,6.83
2019-03-22T23:33:53.501Z,9.33
2019-03-22T23:36:21.901Z,9.33
2019-03-22T23:38:50.486Z,8.10
2019-03-22T23:41:18.879Z,8.00
2019-03-22T23:43:47.271Z,9.40
2019-03-22T23:46:15.685Z,8.70
2019-03-22T23:48:44.079Z,8.77
2019-03-22T23:51:12.475Z,7.83
2019-03-22T23:53:41.013Z,7.27
2019-03-22T23:56:09.409Z,8.50
2019-03-22T23:58:37.804Z,8.43
